sensor_id;sensor_type;location;lat;lon;timestamp;pressure;altitude;pressure_sealevel;temperature;humidity
42847;BME280;28495;49.916;14.536;2023-04-27T00:05:36;97069.03;;;6.43;53.59
42847;BME280;28495;49.916;14.536;2023-04-27T00:10:59;97066.66;;;6.40;53.81
42847;BME280;28495;49.916;14.536;2023-04-27T00:16:20;97071.53;;;6.32;53.97
42847;BME280;28495;49.916;14.536;2023-04-27T00:21:40;97065.84;;;6.39;54.32
42847;BME280;28495;49.916;14.536;2023-04-27T00:27:01;97065.63;;;6.30;54.22
42847;BME280;28495;49.916;14.536;2023-04-27T00:32:22;97064.91;;;6.15;54.57
42847;BME280;28495;49.916;14.536;2023-04-27T00:37:43;97058.41;;;6.22;54.80
42847;BME280;28495;49.916;14.536;2023-04-27T00:43:04;97055.34;;;6.41;54.63
42847;BME280;28495;49.916;14.536;2023-04-27T00:48:25;97053.59;;;6.42;54.59
42847;BME280;28495;49.916;14.536;2023-04-27T00:53:46;97056.00;;;6.32;54.41
42847;BME280;28495;49.916;14.536;2023-04-27T00:59:07;97051.94;;;6.40;54.61
42847;BME280;28495;49.916;14.536;2023-04-27T01:04:28;97048.91;;;6.47;54.17
42847;BME280;28495;49.916;14.536;2023-04-27T01:09:51;97052.09;;;6.26;54.18
42847;BME280;28495;49.916;14.536;2023-04-27T01:15:12;97057.88;;;6.30;54.28
42847;BME280;28495;49.916;14.536;2023-04-27T01:20:33;97047.19;;;6.34;54.09
42847;BME280;28495;49.916;14.536;2023-04-27T01:25:54;97055.91;;;6.20;53.74
42847;BME280;28495;49.916;14.536;2023-04-27T01:31:15;97057.78;;;6.18;53.83
42847;BME280;28495;49.916;14.536;2023-04-27T01:36:36;97050.44;;;6.12;53.54
42847;BME280;28495;49.916;14.536;2023-04-27T01:41:57;97052.22;;;6.12;53.44
42847;BME280;28495;49.916;14.536;2023-04-27T01:47:18;97056.97;;;6.05;53.53
42847;BME280;28495;49.916;14.536;2023-04-27T01:52:38;97059.53;;;5.92;53.70
42847;BME280;28495;49.916;14.536;2023-04-27T01:57:59;97065.03;;;6.00;54.08
42847;BME280;28495;49.916;14.536;2023-04-27T02:03:20;97073.00;;;6.10;54.09
42847;BME280;28495;49.916;14.536;2023-04-27T02:08:43;97068.47;;;6.01;54.24
42847;BME280;28495;49.916;14.536;2023-04-27T02:14:03;97070.75;;;6.18;54.48
42847;BME280;28495;49.916;14.536;2023-04-27T02:19:24;97069.16;;;5.90;54.22
42847;BME280;28495;49.916;14.536;2023-04-27T02:24:45;97083.63;;;5.67;54.54
42847;BME280;28495;49.916;14.536;2023-04-27T02:30:07;97078.34;;;5.55;54.91
42847;BME280;28495;49.916;14.536;2023-04-27T02:35:28;97083.28;;;5.45;54.97
42847;BME280;28495;49.916;14.536;2023-04-27T02:40:53;97077.06;;;5.48;55.42
42847;BME280;28495;49.916;14.536;2023-04-27T02:46:14;97086.22;;;5.67;55.49
42847;BME280;28495;49.916;14.536;2023-04-27T02:51:36;97079.69;;;5.61;55.71
42847;BME280;28495;49.916;14.536;2023-04-27T02:56:57;97089.44;;;5.70;55.51
42847;BME280;28495;49.916;14.536;2023-04-27T03:02:18;97088.81;;;5.67;55.64
42847;BME280;28495;49.916;14.536;2023-04-27T03:07:39;97078.22;;;5.57;55.94
42847;BME280;28495;49.916;14.536;2023-04-27T03:13:00;97085.16;;;5.43;55.68
42847;BME280;28495;49.916;14.536;2023-04-27T03:18:21;97081.81;;;5.28;55.74
42847;BME280;28495;49.916;14.536;2023-04-27T03:23:42;97091.50;;;5.25;56.01
42847;BME280;28495;49.916;14.536;2023-04-27T03:29:02;97087.41;;;5.35;56.45
42847;BME280;28495;49.916;14.536;2023-04-27T03:34:23;97089.13;;;5.62;56.79
42847;BME280;28495;49.916;14.536;2023-04-27T03:39:44;97092.53;;;5.49;56.21
42847;BME280;28495;49.916;14.536;2023-04-27T03:45:06;97104.59;;;5.49;56.52
42847;BME280;28495;49.916;14.536;2023-04-27T03:50:27;97104.09;;;5.44;56.34
42847;BME280;28495;49.916;14.536;2023-04-27T03:55:50;97105.03;;;5.43;56.42
42847;BME280;28495;49.916;14.536;2023-04-27T04:01:11;97107.13;;;5.51;56.32
42847;BME280;28495;49.916;14.536;2023-04-27T04:06:31;97111.44;;;5.50;56.38
42847;BME280;28495;49.916;14.536;2023-04-27T04:11:52;97114.44;;;5.44;56.68
42847;BME280;28495;49.916;14.536;2023-04-27T04:17:13;97114.81;;;5.38;56.74
42847;BME280;28495;49.916;14.536;2023-04-27T04:22:34;97117.47;;;5.51;57.43
42847;BME280;28495;49.916;14.536;2023-04-27T04:27:55;97129.41;;;5.79;56.83
42847;BME280;28495;49.916;14.536;2023-04-27T04:33:17;97132.28;;;5.74;56.79
42847;BME280;28495;49.916;14.536;2023-04-27T04:38:38;97132.81;;;5.67;56.71
42847;BME280;28495;49.916;14.536;2023-04-27T04:43:59;97145.31;;;5.60;56.88
42847;BME280;28495;49.916;14.536;2023-04-27T04:49:21;97151.84;;;5.65;57.02
42847;BME280;28495;49.916;14.536;2023-04-27T04:54:42;97154.78;;;5.74;57.02
42847;BME280;28495;49.916;14.536;2023-04-27T05:00:04;97155.91;;;5.83;57.23
42847;BME280;28495;49.916;14.536;2023-04-27T05:05:30;97161.09;;;5.95;57.03
42847;BME280;28495;49.916;14.536;2023-04-27T05:10:52;97165.81;;;6.03;56.90
42847;BME280;28495;49.916;14.536;2023-04-27T05:16:12;97165.63;;;6.19;57.21
42847;BME280;28495;49.916;14.536;2023-04-27T05:21:33;97169.66;;;6.36;56.99
42847;BME280;28495;49.916;14.536;2023-04-27T05:26:54;97162.38;;;6.54;56.95
42847;BME280;28495;49.916;14.536;2023-04-27T05:32:15;97156.34;;;6.67;56.98
42847;BME280;28495;49.916;14.536;2023-04-27T05:37:35;97165.38;;;6.74;56.63
42847;BME280;28495;49.916;14.536;2023-04-27T05:42:56;97165.16;;;6.77;57.04
42847;BME280;28495;49.916;14.536;2023-04-27T05:48:18;97157.19;;;7.05;56.93
42847;BME280;28495;49.916;14.536;2023-04-27T05:53:39;97158.63;;;7.22;56.81
42847;BME280;28495;49.916;14.536;2023-04-27T05:59:01;97157.41;;;7.39;56.77
42847;BME280;28495;49.916;14.536;2023-04-27T06:04:22;97161.59;;;7.77;55.89
42847;BME280;28495;49.916;14.536;2023-04-27T06:09:43;97160.47;;;8.15;55.34
42847;BME280;28495;49.916;14.536;2023-04-27T06:15:05;97155.22;;;8.62;54.82
42847;BME280;28495;49.916;14.536;2023-04-27T06:20:30;97159.44;;;9.09;54.13
42847;BME280;28495;49.916;14.536;2023-04-27T06:25:51;97159.09;;;9.13;52.85
42847;BME280;28495;49.916;14.536;2023-04-27T06:31:11;97154.69;;;9.25;53.08
42847;BME280;28495;49.916;14.536;2023-04-27T06:36:32;97156.91;;;9.41;52.82
42847;BME280;28495;49.916;14.536;2023-04-27T06:41:53;97164.56;;;9.43;52.76
42847;BME280;28495;49.916;14.536;2023-04-27T06:47:14;97165.16;;;9.79;51.88
42847;BME280;28495;49.916;14.536;2023-04-27T06:52:35;97170.75;;;9.74;51.28
42847;BME280;28495;49.916;14.536;2023-04-27T06:57:55;97174.53;;;9.70;52.06
42847;BME280;28495;49.916;14.536;2023-04-27T07:03:16;97173.56;;;9.39;51.57
42847;BME280;28495;49.916;14.536;2023-04-27T07:08:37;97173.34;;;9.74;51.17
42847;BME280;28495;49.916;14.536;2023-04-27T07:13:58;97174.13;;;9.54;50.47
42847;BME280;28495;49.916;14.536;2023-04-27T07:19:19;97170.94;;;9.83;50.92
42847;BME280;28495;49.916;14.536;2023-04-27T07:24:40;97170.66;;;9.65;50.65
42847;BME280;28495;49.916;14.536;2023-04-27T07:30:01;97176.06;;;9.73;50.17
42847;BME280;28495;49.916;14.536;2023-04-27T07:35:22;97177.72;;;9.74;50.26
42847;BME280;28495;49.916;14.536;2023-04-27T07:40:43;97178.69;;;9.94;49.96
42847;BME280;28495;49.916;14.536;2023-04-27T07:46:05;97179.78;;;10.34;49.61
42847;BME280;28495;49.916;14.536;2023-04-27T07:51:26;97176.78;;;9.96;48.91
42847;BME280;28495;49.916;14.536;2023-04-27T07:56:49;97180.34;;;10.16;49.01
42847;BME280;28495;49.916;14.536;2023-04-27T08:02:11;97179.31;;;10.40;49.45
42847;BME280;28495;49.916;14.536;2023-04-27T08:07:36;97189.75;;;10.29;48.55
42847;BME280;28495;49.916;14.536;2023-04-27T08:13:04;97184.19;;;10.12;48.46
42847;BME280;28495;49.916;14.536;2023-04-27T08:18:25;97188.69;;;10.10;48.79
42847;BME280;28495;49.916;14.536;2023-04-27T08:23:46;97180.25;;;10.18;48.20
42847;BME280;28495;49.916;14.536;2023-04-27T08:29:07;97181.69;;;10.11;48.20
42847;BME280;28495;49.916;14.536;2023-04-27T08:34:46;97179.31;;;10.29;48.18
42847;BME280;28495;49.916;14.536;2023-04-27T08:40:07;97182.22;;;10.26;48.44
42847;BME280;28495;49.916;14.536;2023-04-27T08:45:29;97181.38;;;10.25;48.42
42847;BME280;28495;49.916;14.536;2023-04-27T08:50:51;97192.56;;;10.37;48.45
42847;BME280;28495;49.916;14.536;2023-04-27T08:56:12;97190.53;;;10.41;48.29
42847;BME280;28495;49.916;14.536;2023-04-27T09:01:33;97185.22;;;10.42;47.87
42847;BME280;28495;49.916;14.536;2023-04-27T09:06:53;97191.84;;;10.35;47.65
42847;BME280;28495;49.916;14.536;2023-04-27T09:12:18;97200.63;;;10.34;48.15
42847;BME280;28495;49.916;14.536;2023-04-27T09:17:40;97201.66;;;10.64;47.84
42847;BME280;28495;49.916;14.536;2023-04-27T09:23:00;97189.09;;;10.48;46.57
42847;BME280;28495;49.916;14.536;2023-04-27T09:28:22;97182.13;;;10.58;47.29
42847;BME280;28495;49.916;14.536;2023-04-27T09:33:44;97173.34;;;10.90;47.82
42847;BME280;28495;49.916;14.536;2023-04-27T09:39:08;97180.50;;;10.98;46.81
42847;BME280;28495;49.916;14.536;2023-04-27T09:44:30;97176.06;;;10.79;46.96
42847;BME280;28495;49.916;14.536;2023-04-27T09:49:51;97175.81;;;10.61;46.62
42847;BME280;28495;49.916;14.536;2023-04-27T09:55:18;97172.84;;;10.65;47.20
42847;BME280;28495;49.916;14.536;2023-04-27T10:00:59;97175.59;;;10.43;46.60
42847;BME280;28495;49.916;14.536;2023-04-27T10:12:17;97176.31;;;10.45;47.00
42847;BME280;28495;49.916;14.536;2023-04-27T10:17:46;97163.06;;;10.58;46.77
42847;BME280;28495;49.916;14.536;2023-04-27T10:23:07;97159.75;;;10.87;48.96
42847;BME280;28495;49.916;14.536;2023-04-27T10:28:37;97168.69;;;11.04;46.69
42847;BME280;28495;49.916;14.536;2023-04-27T10:34:08;97162.06;;;10.90;46.55
42847;BME280;28495;49.916;14.536;2023-04-27T10:39:34;97147.75;;;10.84;46.98
42847;BME280;28495;49.916;14.536;2023-04-27T10:45:08;97145.34;;;11.12;47.42
42847;BME280;28495;49.916;14.536;2023-04-27T10:50:29;97145.13;;;11.25;46.68
42847;BME280;28495;49.916;14.536;2023-04-27T10:55:55;97146.78;;;11.26;46.61
42847;BME280;28495;49.916;14.536;2023-04-27T11:01:25;97152.50;;;11.00;46.30
42847;BME280;28495;49.916;14.536;2023-04-27T11:06:46;97143.19;;;10.76;45.60
42847;BME280;28495;49.916;14.536;2023-04-27T11:12:11;97143.88;;;10.68;46.53
42847;BME280;28495;49.916;14.536;2023-04-27T11:17:32;97140.41;;;10.58;45.72
42847;BME280;28495;49.916;14.536;2023-04-27T11:22:53;97159.16;;;10.42;45.86
42847;BME280;28495;49.916;14.536;2023-04-27T11:28:24;97148.72;;;10.42;45.34
42847;BME280;28495;49.916;14.536;2023-04-27T11:33:49;97143.91;;;10.78;50.33
42847;BME280;28495;49.916;14.536;2023-04-27T11:39:17;97141.56;;;11.95;49.18
42847;BME280;28495;49.916;14.536;2023-04-27T11:44:39;97141.28;;;11.88;46.17
42847;BME280;28495;49.916;14.536;2023-04-27T11:50:04;97148.47;;;11.56;46.12
42847;BME280;28495;49.916;14.536;2023-04-27T11:55:26;97142.13;;;11.59;46.19
42847;BME280;28495;49.916;14.536;2023-04-27T12:00:48;97140.34;;;11.69;46.13
42847;BME280;28495;49.916;14.536;2023-04-27T12:06:09;97137.19;;;11.76;46.03
42847;BME280;28495;49.916;14.536;2023-04-27T12:11:50;97131.94;;;11.76;45.64
42847;BME280;28495;49.916;14.536;2023-04-27T12:17:11;97131.69;;;11.79;45.32
42847;BME280;28495;49.916;14.536;2023-04-27T12:22:31;97135.09;;;11.89;45.51
42847;BME280;28495;49.916;14.536;2023-04-27T12:27:53;97137.84;;;11.87;44.92
42847;BME280;28495;49.916;14.536;2023-04-27T12:33:14;97143.38;;;11.74;45.07
42847;BME280;28495;49.916;14.536;2023-04-27T12:38:36;97141.97;;;11.51;44.41
42847;BME280;28495;49.916;14.536;2023-04-27T12:43:57;97130.44;;;11.53;45.07
42847;BME280;28495;49.916;14.536;2023-04-27T12:49:17;97131.25;;;11.64;44.97
42847;BME280;28495;49.916;14.536;2023-04-27T12:54:38;97122.88;;;11.60;44.23
42847;BME280;28495;49.916;14.536;2023-04-27T13:00:00;97121.78;;;11.63;44.88
42847;BME280;28495;49.916;14.536;2023-04-27T13:05:22;97121.50;;;11.85;44.81
42847;BME280;28495;49.916;14.536;2023-04-27T13:10:43;97126.56;;;11.97;44.64
42847;BME280;28495;49.916;14.536;2023-04-27T13:16:04;97132.06;;;11.94;44.32
42847;BME280;28495;49.916;14.536;2023-04-27T13:21:25;97128.38;;;11.86;44.11
42847;BME280;28495;49.916;14.536;2023-04-27T13:26:47;97128.09;;;11.70;44.16
42847;BME280;28495;49.916;14.536;2023-04-27T13:32:08;97137.16;;;11.56;43.39
42847;BME280;28495;49.916;14.536;2023-04-27T13:37:28;97124.53;;;11.41;43.87
42847;BME280;28495;49.916;14.536;2023-04-27T13:42:49;97121.63;;;12.03;45.14
42847;BME280;28495;49.916;14.536;2023-04-27T13:48:10;97113.25;;;12.00;44.27
42847;BME280;28495;49.916;14.536;2023-04-27T13:53:32;97114.31;;;11.87;44.34
42847;BME280;28495;49.916;14.536;2023-04-27T13:58:52;97112.00;;;11.74;43.61
42847;BME280;28495;49.916;14.536;2023-04-27T14:04:13;97109.41;;;11.65;43.48
42847;BME280;28495;49.916;14.536;2023-04-27T14:09:34;97114.78;;;11.63;44.07
42847;BME280;28495;49.916;14.536;2023-04-27T14:14:55;97124.38;;;11.63;43.80
42847;BME280;28495;49.916;14.536;2023-04-27T14:20:17;97107.91;;;11.72;43.76
42847;BME280;28495;49.916;14.536;2023-04-27T14:25:38;97109.41;;;11.84;44.38
42847;BME280;28495;49.916;14.536;2023-04-27T14:30:59;97098.09;;;11.84;43.50
42847;BME280;28495;49.916;14.536;2023-04-27T14:36:20;97096.31;;;11.84;44.02
42847;BME280;28495;49.916;14.536;2023-04-27T14:41:40;97100.59;;;11.76;43.07
42847;BME280;28495;49.916;14.536;2023-04-27T14:47:01;97098.69;;;11.78;43.54
42847;BME280;28495;49.916;14.536;2023-04-27T14:52:22;97092.50;;;11.69;43.43
42847;BME280;28495;49.916;14.536;2023-04-27T14:57:43;97096.88;;;11.78;43.45
42847;BME280;28495;49.916;14.536;2023-04-27T15:03:04;97085.03;;;11.94;43.38
42847;BME280;28495;49.916;14.536;2023-04-27T15:08:26;97086.69;;;11.85;42.95
42847;BME280;28495;49.916;14.536;2023-04-27T15:13:46;97089.28;;;11.85;43.27
42847;BME280;28495;49.916;14.536;2023-04-27T15:19:07;97087.91;;;11.90;43.21
42847;BME280;28495;49.916;14.536;2023-04-27T15:24:28;97084.34;;;11.92;43.71
42847;BME280;28495;49.916;14.536;2023-04-27T15:29:49;97086.81;;;12.03;43.45
42847;BME280;28495;49.916;14.536;2023-04-27T15:35:12;97090.78;;;11.97;43.20
42847;BME280;28495;49.916;14.536;2023-04-27T15:40:33;97089.97;;;11.97;43.22
42847;BME280;28495;49.916;14.536;2023-04-27T15:45:54;97087.53;;;11.85;43.31
42847;BME280;28495;49.916;14.536;2023-04-27T15:51:14;97087.97;;;11.71;43.12
42847;BME280;28495;49.916;14.536;2023-04-27T15:56:36;97076.56;;;11.72;43.24
42847;BME280;28495;49.916;14.536;2023-04-27T16:01:56;97082.69;;;11.81;43.43
42847;BME280;28495;49.916;14.536;2023-04-27T16:07:17;97081.34;;;11.86;43.37
42847;BME280;28495;49.916;14.536;2023-04-27T16:12:38;97077.59;;;11.89;43.40
42847;BME280;28495;49.916;14.536;2023-04-27T16:17:59;97084.47;;;11.90;43.38
42847;BME280;28495;49.916;14.536;2023-04-27T16:23:20;97078.47;;;11.80;43.29
42847;BME280;28495;49.916;14.536;2023-04-27T16:28:41;97070.47;;;11.71;43.08
42847;BME280;28495;49.916;14.536;2023-04-27T16:34:02;97075.84;;;11.70;43.36
42847;BME280;28495;49.916;14.536;2023-04-27T16:39:23;97069.53;;;11.72;44.30
42847;BME280;28495;49.916;14.536;2023-04-27T16:44:45;97065.53;;;11.78;43.52
42847;BME280;28495;49.916;14.536;2023-04-27T16:50:06;97073.63;;;11.75;43.31
42847;BME280;28495;49.916;14.536;2023-04-27T16:55:27;97069.38;;;11.74;43.17
42847;BME280;28495;49.916;14.536;2023-04-27T17:00:48;97069.25;;;11.76;43.19
42847;BME280;28495;49.916;14.536;2023-04-27T17:06:09;97068.66;;;11.82;43.16
42847;BME280;28495;49.916;14.536;2023-04-27T17:11:29;97067.31;;;11.78;43.73
42847;BME280;28495;49.916;14.536;2023-04-27T17:16:51;97062.38;;;11.74;43.19
42847;BME280;28495;49.916;14.536;2023-04-27T17:22:11;97068.81;;;11.80;43.58
42847;BME280;28495;49.916;14.536;2023-04-27T17:27:34;97063.44;;;11.82;43.41
42847;BME280;28495;49.916;14.536;2023-04-27T17:32:55;97067.06;;;11.71;43.71
42847;BME280;28495;49.916;14.536;2023-04-27T17:38:15;97063.84;;;11.87;44.10
42847;BME280;28495;49.916;14.536;2023-04-27T17:43:36;97059.75;;;11.84;44.59
42847;BME280;28495;49.916;14.536;2023-04-27T17:48:57;97064.56;;;11.79;44.43
42847;BME280;28495;49.916;14.536;2023-04-27T17:54:18;97066.81;;;11.44;44.04
42847;BME280;28495;49.916;14.536;2023-04-27T17:59:38;97073.81;;;11.15;45.22
42847;BME280;28495;49.916;14.536;2023-04-27T18:05:00;97066.78;;;11.05;45.04
42847;BME280;28495;49.916;14.536;2023-04-27T18:10:20;97071.34;;;11.03;45.78
42847;BME280;28495;49.916;14.536;2023-04-27T18:15:41;97080.13;;;11.02;45.40
42847;BME280;28495;49.916;14.536;2023-04-27T18:21:02;97078.66;;;10.68;44.81
42847;BME280;28495;49.916;14.536;2023-04-27T18:26:23;97093.31;;;10.50;44.93
42847;BME280;28495;49.916;14.536;2023-04-27T18:31:44;97091.53;;;10.29;44.83
42847;BME280;28495;49.916;14.536;2023-04-27T18:37:05;97100.56;;;10.25;45.28
42847;BME280;28495;49.916;14.536;2023-04-27T18:42:26;97111.28;;;10.32;45.54
42847;BME280;28495;49.916;14.536;2023-04-27T18:47:46;97120.84;;;10.43;45.53
42847;BME280;28495;49.916;14.536;2023-04-27T18:53:07;97126.50;;;10.48;45.71
42847;BME280;28495;49.916;14.536;2023-04-27T18:58:28;97132.53;;;10.48;45.77
42847;BME280;28495;49.916;14.536;2023-04-27T19:03:49;97131.97;;;10.45;45.60
42847;BME280;28495;49.916;14.536;2023-04-27T19:09:10;97124.56;;;10.40;45.74
42847;BME280;28495;49.916;14.536;2023-04-27T19:14:31;97129.28;;;10.35;45.95
42847;BME280;28495;49.916;14.536;2023-04-27T19:19:52;97129.06;;;10.38;46.25
42847;BME280;28495;49.916;14.536;2023-04-27T19:25:13;97132.38;;;10.40;46.02
42847;BME280;28495;49.916;14.536;2023-04-27T19:30:33;97128.47;;;10.34;45.69
42847;BME280;28495;49.916;14.536;2023-04-27T19:35:54;97134.91;;;10.30;46.01
42847;BME280;28495;49.916;14.536;2023-04-27T19:41:15;97140.00;;;10.11;45.65
42847;BME280;28495;49.916;14.536;2023-04-27T19:46:37;97142.91;;;9.96;46.26
42847;BME280;28495;49.916;14.536;2023-04-27T19:52:01;97139.22;;;9.99;45.95
42847;BME280;28495;49.916;14.536;2023-04-27T19:57:25;97145.22;;;9.89;46.15
42847;BME280;28495;49.916;14.536;2023-04-27T20:02:48;97157.41;;;9.89;46.03
42847;BME280;28495;49.916;14.536;2023-04-27T20:08:10;97151.63;;;9.85;46.42
42847;BME280;28495;49.916;14.536;2023-04-27T20:13:31;97150.91;;;9.83;46.54
42847;BME280;28495;49.916;14.536;2023-04-27T20:18:51;97154.78;;;9.68;46.01
42847;BME280;28495;49.916;14.536;2023-04-27T20:24:12;97157.44;;;9.56;46.40
42847;BME280;28495;49.916;14.536;2023-04-27T20:29:34;97156.94;;;9.30;46.09
42847;BME280;28495;49.916;14.536;2023-04-27T20:34:55;97153.63;;;9.17;46.49
42847;BME280;28495;49.916;14.536;2023-04-27T20:40:15;97142.63;;;9.24;47.19
42847;BME280;28495;49.916;14.536;2023-04-27T20:45:37;97148.25;;;8.97;46.96
42847;BME280;28495;49.916;14.536;2023-04-27T20:50:58;97139.16;;;8.91;47.20
42847;BME280;28495;49.916;14.536;2023-04-27T20:56:19;97134.78;;;8.92;47.18
42847;BME280;28495;49.916;14.536;2023-04-27T21:01:40;97127.19;;;8.89;47.57
42847;BME280;28495;49.916;14.536;2023-04-27T21:07:01;97121.56;;;8.83;47.61
42847;BME280;28495;49.916;14.536;2023-04-27T21:12:21;97123.19;;;8.73;47.67
42847;BME280;28495;49.916;14.536;2023-04-27T21:17:42;97120.25;;;8.44;47.47
42847;BME280;28495;49.916;14.536;2023-04-27T21:23:03;97116.34;;;8.38;47.69
42847;BME280;28495;49.916;14.536;2023-04-27T21:28:23;97111.72;;;8.19;47.68
42847;BME280;28495;49.916;14.536;2023-04-27T21:33:44;97108.88;;;8.11;48.12
42847;BME280;28495;49.916;14.536;2023-04-27T21:39:05;97114.44;;;8.17;48.27
42847;BME280;28495;49.916;14.536;2023-04-27T21:44:26;97102.38;;;8.16;48.35
42847;BME280;28495;49.916;14.536;2023-04-27T21:49:47;97109.00;;;8.09;48.01
42847;BME280;28495;49.916;14.536;2023-04-27T21:55:10;97115.09;;;7.97;48.25
42847;BME280;28495;49.916;14.536;2023-04-27T22:00:31;97113.69;;;7.92;48.78
42847;BME280;28495;49.916;14.536;2023-04-27T22:05:53;97109.19;;;7.94;48.51
42847;BME280;28495;49.916;14.536;2023-04-27T22:11:16;97102.97;;;7.97;48.58
42847;BME280;28495;49.916;14.536;2023-04-27T22:16:37;97105.91;;;7.92;48.51
42847;BME280;28495;49.916;14.536;2023-04-27T22:21:58;97108.00;;;7.87;48.77
42847;BME280;28495;49.916;14.536;2023-04-27T22:27:19;97105.63;;;7.84;48.62
42847;BME280;28495;49.916;14.536;2023-04-27T22:32:40;97095.25;;;7.84;49.04
42847;BME280;28495;49.916;14.536;2023-04-27T22:38:01;97095.63;;;7.91;48.89
42847;BME280;28495;49.916;14.536;2023-04-27T22:43:22;97092.78;;;7.71;48.83
42847;BME280;28495;49.916;14.536;2023-04-27T22:48:43;97095.59;;;7.68;49.53
42847;BME280;28495;49.916;14.536;2023-04-27T22:54:04;97086.88;;;7.81;49.34
42847;BME280;28495;49.916;14.536;2023-04-27T22:59:25;97089.00;;;7.87;49.44
42847;BME280;28495;49.916;14.536;2023-04-27T23:04:46;97092.94;;;7.92;49.39
42847;BME280;28495;49.916;14.536;2023-04-27T23:10:08;97083.81;;;7.87;49.27
42847;BME280;28495;49.916;14.536;2023-04-27T23:15:30;97080.16;;;7.78;49.54
42847;BME280;28495;49.916;14.536;2023-04-27T23:20:52;97090.91;;;7.85;49.79
42847;BME280;28495;49.916;14.536;2023-04-27T23:26:16;97089.25;;;7.84;49.81
42847;BME280;28495;49.916;14.536;2023-04-27T23:31:36;97089.25;;;7.95;49.49
42847;BME280;28495;49.916;14.536;2023-04-27T23:36:58;97080.75;;;8.04;49.67
42847;BME280;28495;49.916;14.536;2023-04-27T23:42:18;97078.28;;;8.14;49.77
42847;BME280;28495;49.916;14.536;2023-04-27T23:47:39;97072.28;;;8.25;49.90
42847;BME280;28495;49.916;14.536;2023-04-27T23:53:00;97073.13;;;8.37;49.93
42847;BME280;28495;49.916;14.536;2023-04-27T23:58:21;97067.91;;;8.37;49.45
